Warabrook Real Estate, NSW, 2304 Newcastle

Thinking about buying in Warabrook? Now could not be a better time, with a whopping 1133 properties either residential or commercial there's certainly plenty to choose from.

The average property price for this area is $600,000 with prices in this suburb ranging from $420,000 to $946,000.

Distance to the coast is 4 Km.

Warabrook Real Estate Market Outlook

In Warabrook there has been a history of lower than average prices and demand, offering opportunities for investors or first home owners, especially in the context of the growth in working from home. Low average incomes in Warabrook is reflected in smaller and lower quality accommodation. Over time this may change providsing long-term returns but in the short to medium term, prices are likely to be less than state averages. A mix of professions and above average income earners in Warabrook provides good demand. The lower than average housing turnover of these people also means fewer regular listings leading to periodic large price increases. Lower than average population density constrains growth in Warabrook to an extent. However, where buyers are willing to compromise on housing and lifestyle choice, there are affordable options. Higher than average industry presence in the wider area offering local employment yet with not a large negative impact on local amenity, provides good demand and price growth.

About

For Sale

First National 2 CEDRELLA CR, WARABROOK, NSW, 2304 3 2 2 $890,000 - $930,000

More

Local Schools


None within suburb boundary

(While the above schools are located with the suburb of Warabrook there may also be nearby schools whose catchments cover this suburb)

Local Crime Stats


Average Local Climate by month


(mm)
RAIN
Min (°C)
TEMP
Max (°C)
TEMP
Min (%)
HUMIDITY
Max (%)
HUMIDITY
(m/sec)
WIND
(MJ/sq m)
SOLAR
Jan2.018.930.148.193.64.624.5
Feb3.318.628.352.794.54.220.7
Mar5.117.426.854.2954.116.6
Apr4.413.724.551.695.83.614.4
May2.610.021.049.393.84.011.3
Jun4.88.718.254.494.24.39.5
Jul2.36.818.346.191.94.510.8
Aug1.86.819.838.591.64.513.7
Sept2.09.423.037.092.54.318.2
Oct2.412.224.841.593.04.421.3
Nov2.515.526.946.893.74.424
Dec2.517.328.247.893.34.624.8

source: Australian Government Bureau of Meteorology

Recently Sold

22-04-2022 $1,100,000 18 DIANELLA CT WARABROOK 2304
20-04-2022 $650,000 2 CONICA CL WARABROOK 2304
20-04-2022 $1,065,000 59 ANGOPHORA DR WARABROOK 2304
19-04-2022 $695,000 2 / 44 BAKERI CCT WARABROOK 2304
07-04-2022 $1,050,000 32 EUCALYPTUS CCT WARABROOK 2304
01-04-2022 $97,900 34 / 31 WARABROOK BVD WARABROOK 2304
22-03-2022 $328,900 31 WARABROOK BVD WARABROOK 2304
22-03-2022 $328,900 31 WARABROOK BVD WARABROOK 2304
22-03-2022 $328,900 31 WARABROOK BVD WARABROOK 2304
22-03-2022 $328,900 31 WARABROOK BVD WARABROOK 2304
22-03-2022 $328,900 31 WARABROOK BVD WARABROOK 2304
22-03-2022 $328,900 31 WARABROOK BVD WARABROOK 2304
22-03-2022 $328,900 31 WARABROOK BVD WARABROOK 2304
22-03-2022 $328,900 31 WARABROOK BVD WARABROOK 2304
22-03-2022 $328,900 31 WARABROOK BVD WARABROOK 2304
22-03-2022 $328,900 31 WARABROOK BVD WARABROOK 2304
22-03-2022 $328,900 31 WARABROOK BVD WARABROOK 2304
22-03-2022 $328,900 31 WARABROOK BVD WARABROOK 2304
22-03-2022 $328,900 31 WARABROOK BVD WARABROOK 2304
22-03-2022 $328,900 31 WARABROOK BVD WARABROOK 2304
22-03-2022 $328,900 31 WARABROOK BVD WARABROOK 2304
22-03-2022 $328,900 31 WARABROOK BVD WARABROOK 2304
22-03-2022 $328,900 31 WARABROOK BVD WARABROOK 2304
22-03-2022 $328,900 31 WARABROOK BVD WARABROOK 2304
22-03-2022 $328,900 31 WARABROOK BVD WARABROOK 2304
22-03-2022 $328,900 31 WARABROOK BVD WARABROOK 2304
22-03-2022 $328,900 31 WARABROOK BVD WARABROOK 2304
22-03-2022 $328,900 31 WARABROOK BVD WARABROOK 2304
22-03-2022 $328,900 31 WARABROOK BVD WARABROOK 2304
22-03-2022 $328,900 31 WARABROOK BVD WARABROOK 2304
22-03-2022 $328,900 31 WARABROOK BVD WARABROOK 2304
22-03-2022 $328,900 31 WARABROOK BVD WARABROOK 2304
22-03-2022 $328,900 31 WARABROOK BVD WARABROOK 2304
22-03-2022 $328,900 31 WARABROOK BVD WARABROOK 2304
22-03-2022 $328,900 31 WARABROOK BVD WARABROOK 2304
22-03-2022 $328,900 31 WARABROOK BVD WARABROOK 2304
22-03-2022 $328,900 31 WARABROOK BVD WARABROOK 2304
22-03-2022 $328,900 31 WARABROOK BVD WARABROOK 2304
22-03-2022 $328,900 31 WARABROOK BVD WARABROOK 2304
22-03-2022 $328,900 31 WARABROOK BVD WARABROOK 2304
22-03-2022 $328,900 31 WARABROOK BVD WARABROOK 2304
22-03-2022 $328,900 31 WARABROOK BVD WARABROOK 2304
22-03-2022 $328,900 31 WARABROOK BVD WARABROOK 2304
22-03-2022 $328,900 31 WARABROOK BVD WARABROOK 2304
22-03-2022 $328,900 31 WARABROOK BVD WARABROOK 2304
22-03-2022 $328,900 31 WARABROOK BVD WARABROOK 2304
22-03-2022 $328,900 31 WARABROOK BVD WARABROOK 2304
22-03-2022 $328,900 31 WARABROOK BVD WARABROOK 2304
11-03-2022 $955,000 45 ANGOPHORA DR WARABROOK 2304
11-03-2022 $338,800 31 WARABROOK BVD WARABROOK 2304

Residz covers 12m+ Australian properties and brings together a wealth of data to give you a better understanding of an area. From crime and schools to bush fire, flood risk and more. Begin your search for properties for sale or learn more about where you currently reside. Residz is an exciting next-generation Real Estate platform getting better by the day!